»·PEaware :: AMMO17 KEND-KEND

AMMO17 :: KEND-KEND

FLIGHT INFORMATION

Flight Status: Arrived
Operator: Unknown
More flights by this operator :: More flights under this callsign
Pilot: Erica D. (22207)
Aircraft: BEECH AIRCRAFT T-6A TEXAN
(TEX2)
More flights by this aircraft type
Origin: KEND Vance AFB
United States
Destination: KEND Vance AFB
United States
More flights between these airports :: More routes between these airports
Route: DF END6
File this flight plan on PilotEdge
Remarks:
Altitude:
(Current/Filed)
null
Speed:
(Current/Filed)
0kts
Departed: 23-Feb-21 07:01 AM
Arrived: 23-Feb-21 07:16 AM
Distance/Time
Traveled:
24nm/0:15
Distance/Time
To Go:
Arrived

Flight Plot

Page will automatically refresh every two minutes.

Flight plan parsing failed; only flown route is shown


Map Options




Map Legend


Flown Route
Filed Route
Departure Airport
Arrival Airport
Navaid (VOR, NDB)
Fix

Horizontal Profiles

Position Reports

Time Latitude Longitude Heading Altitude Ground
Speed
23-Feb-21 06:38 36.346970 -97.909981 219 1279ft 0kts
23-Feb-21 06:39 36.346970 -97.909981 219 1279ft 0kts
23-Feb-21 06:40 36.346970 -97.909981 219 1279ft 0kts
23-Feb-21 06:41 36.346970 -97.909981 219 1279ft 0kts
23-Feb-21 06:42 36.346970 -97.909981 219 1279ft 0kts
23-Feb-21 06:43 36.346970 -97.909981 219 1279ft 0kts
23-Feb-21 06:44 36.346970 -97.909981 219 1279ft 0kts
23-Feb-21 06:45 36.346970 -97.909981 219 1279ft 0kts
23-Feb-21 06:46 36.346970 -97.909981 219 1279ft 0kts
23-Feb-21 06:47 36.346970 -97.909981 219 1279ft 0kts
23-Feb-21 06:48 36.346970 -97.909981 219 1279ft 0kts
23-Feb-21 06:49 36.346970 -97.909981 219 1279ft 0kts
23-Feb-21 06:50 36.346970 -97.909981 219 1279ft 0kts
23-Feb-21 06:51 36.346970 -97.909981 219 1279ft 0kts
23-Feb-21 06:52 36.346309 -97.909219 176 1281ft 0kts
23-Feb-21 06:53 36.333580 -97.910081 269 1291ft 0kts
23-Feb-21 06:54 36.333580 -97.910081 269 1291ft 0kts
23-Feb-21 06:55 36.333594 -97.910370 236 1291ft 0kts
23-Feb-21 06:56 36.333594 -97.910370 236 1291ft 0kts
23-Feb-21 06:57 36.333594 -97.910370 236 1291ft 0kts
23-Feb-21 06:58 36.333594 -97.910370 236 1291ft 0kts
23-Feb-21 06:59 36.334052 -97.911065 355 1290ft 30kts
23-Feb-21 07:00 36.373520 -97.906372 6 2984ft 183kts
23-Feb-21 07:01 36.430010 -97.894510 8 5051ft 233kts
23-Feb-21 07:02 36.490484 -97.910049 355 5086ft 240kts
23-Feb-21 07:03 36.560340 -97.905321 359 4978ft 252kts
23-Feb-21 07:04 36.629812 -97.900645 1 4954ft 246kts
23-Feb-21 07:05 36.698963 -97.894626 0 4138ft 258kts
23-Feb-21 07:06 36.741524 -97.926246 256 3035ft 221kts
23-Feb-21 07:07 36.740386 -98.003739 268 2921ft 227kts
23-Feb-21 07:08 36.703551 -98.059875 228 3046ft 223kts
23-Feb-21 07:09 36.707259 -98.124330 6 2313ft 222kts
23-Feb-21 07:10 36.769448 -98.122274 359 2387ft 228kts
23-Feb-21 07:11 36.773575 -98.068755 173 3731ft 205kts
23-Feb-21 07:12 36.712715 -98.060955 177 5485ft 239kts
23-Feb-21 07:13 36.695285 -97.980762 88 4649ft 276kts
23-Feb-21 07:14 36.693886 -97.890432 99 4930ft 257kts
23-Feb-21 07:15 36.346970 -97.909981 219 1279ft 0kts
23-Feb-21 07:16 36.346970 -97.909981 219 1279ft 0kts
23-Feb-21 07:17 36.333580 -97.910081 269 1291ft 0kts
23-Feb-21 07:18 36.333580 -97.910081 269 1291ft 0kts
23-Feb-21 07:19 36.333580 -97.910081 269 1291ft 0kts
23-Feb-21 07:20 36.333364 -97.911070 358 1290ft 0kts
23-Feb-21 07:21 36.345374 -97.911190 0 1387ft 157kts
23-Feb-21 07:22 36.399661 -97.900601 6 3735ft 209kts
23-Feb-21 07:23 36.461015 -97.892866 336 5009ft 247kts
23-Feb-21 07:24 36.529828 -97.903737 3 5028ft 256kts
23-Feb-21 07:25 36.600332 -97.899398 0 4994ft 249kts
23-Feb-21 07:26 36.669912 -97.894669 0 4716ft 251kts
23-Feb-21 07:27 36.736093 -97.905950 303 2958ft 235kts
23-Feb-21 07:28 36.739766 -97.983431 268 2273ft 226kts
23-Feb-21 07:29 36.716952 -98.049295 220 2344ft 222kts

Navigation Log

Ident Type
Flight plan parsing failed, navigation log unavailable